createdAt,value
2022-09-02T00:01:38.146Z,99.90
2022-09-02T00:04:09.759Z,99.90
2022-09-02T00:06:38.986Z,99.90
2022-09-02T00:09:08.464Z,99.90
2022-09-02T00:11:38.417Z,99.90
2022-09-02T00:14:19.273Z,99.90
2022-09-02T00:16:52.675Z,99.90
2022-09-02T00:19:24.402Z,99.90
2022-09-02T00:21:53.446Z,99.90
2022-09-02T00:24:22.734Z,99.90
2022-09-02T00:26:50.733Z,99.90
2022-09-02T00:29:24.408Z,99.90
2022-09-02T00:31:52.514Z,99.90
2022-09-02T00:34:21.916Z,99.90
2022-09-02T00:36:49.889Z,99.90
2022-09-02T00:39:18.468Z,99.90
2022-09-02T00:41:46.509Z,99.90
2022-09-02T00:44:17.422Z,99.90
2022-09-02T00:46:45.736Z,99.90
2022-09-02T00:49:19.024Z,99.90
2022-09-02T00:51:51.904Z,99.90
2022-09-02T00:54:23.057Z,99.90
2022-09-02T00:56:55.574Z,99.90
2022-09-02T00:59:28.569Z,99.90
2022-09-02T01:01:57.282Z,99.90
2022-09-02T01:04:26.025Z,99.90
2022-09-02T01:06:56.026Z,99.90
2022-09-02T01:09:24.240Z,99.90
2022-09-02T01:11:55.026Z,99.90
2022-09-02T01:14:24.125Z,99.90
2022-09-02T01:17:00.934Z,99.90
2022-09-02T01:19:33.028Z,99.90
2022-09-02T01:22:03.154Z,99.90
2022-09-02T01:24:32.623Z,99.90
2022-09-02T01:27:00.848Z,99.90
2022-09-02T01:29:30.004Z,99.90
2022-09-02T01:31:58.746Z,99.90
2022-09-02T01:34:27.019Z,99.90
2022-09-02T01:36:55.124Z,99.90
2022-09-02T01:39:24.387Z,99.90
2022-09-02T01:41:53.198Z,99.90
2022-09-02T01:44:21.362Z,99.90
2022-09-02T01:46:51.219Z,99.90
2022-09-02T01:49:19.331Z,99.90
2022-09-02T01:51:47.398Z,99.90
2022-09-02T01:54:15.436Z,99.90
2022-09-02T01:56:45.346Z,99.90
2022-09-02T01:59:17.747Z,99.90
2022-09-02T02:01:48.156Z,99.90
2022-09-02T02:04:17.421Z,99.90
2022-09-02T02:06:48.861Z,99.90
2022-09-02T02:09:20.858Z,99.90
2022-09-02T02:11:51.166Z,99.90
2022-09-02T02:14:19.734Z,99.90
2022-09-02T02:16:52.435Z,99.90
2022-09-02T02:19:20.370Z,99.90
2022-09-02T02:21:49.659Z,99.90
2022-09-02T02:24:17.763Z,99.90
2022-09-02T02:26:45.757Z,99.90
2022-09-02T02:29:16.058Z,99.90
2022-09-02T02:31:45.446Z,99.90
2022-09-02T02:34:13.883Z,99.90
2022-09-02T02:36:44.118Z,99.90
2022-09-02T02:39:13.068Z,99.90
2022-09-02T02:41:44.796Z,99.90
2022-09-02T02:44:14.987Z,99.90
2022-09-02T02:46:43.262Z,99.90
2022-09-02T02:49:11.447Z,99.90
2022-09-02T02:51:40.007Z,99.90
2022-09-02T02:54:08.321Z,99.90
2022-09-02T02:56:36.427Z,99.90
2022-09-02T02:59:04.919Z,99.90
2022-09-02T03:01:36.045Z,99.90
2022-09-02T03:04:06.788Z,99.90
2022-09-02T03:06:35.777Z,99.90
2022-09-02T03:09:05.157Z,99.90
2022-09-02T03:11:33.412Z,99.90
2022-09-02T03:14:02.606Z,99.90
2022-09-02T03:16:30.581Z,99.90
2022-09-02T03:19:01.832Z,99.90
2022-09-02T03:21:33.429Z,99.90
2022-09-02T03:24:08.443Z,99.90
2022-09-02T03:26:36.427Z,99.90
2022-09-02T03:29:05.132Z,99.90
2022-09-02T03:31:33.578Z,99.90
2022-09-02T03:34:04.176Z,99.90
2022-09-02T03:36:35.778Z,99.90
2022-09-02T03:39:05.047Z,99.90
2022-09-02T03:41:38.360Z,99.90
2022-09-02T03:44:06.555Z,99.90
2022-09-02T03:46:35.239Z,99.90
2022-09-02T03:49:05.562Z,99.90
2022-09-02T03:51:33.515Z,99.90
2022-09-02T03:54:02.723Z,99.90
2022-09-02T03:56:32.722Z,99.90
2022-09-02T03:59:01.103Z,99.90
2022-09-02T04:01:34.532Z,99.90
2022-09-02T04:04:05.762Z,99.90
2022-09-02T04:06:34.725Z,99.90
2022-09-02T04:09:05.004Z,99.90
2022-09-02T04:11:34.273Z,99.90
2022-09-02T04:14:02.517Z,99.90
2022-09-02T04:16:31.484Z,99.90
2022-09-02T04:19:06.399Z,99.90
2022-09-02T04:21:36.692Z,99.90
2022-09-02T04:24:05.331Z,99.90
2022-09-02T04:26:34.236Z,99.90
2022-09-02T04:29:02.727Z,99.90
2022-09-02T04:31:35.611Z,99.90
2022-09-02T04:34:07.697Z,99.90
2022-09-02T04:36:36.039Z,99.90
2022-09-02T04:39:09.328Z,99.90
2022-09-02T04:41:38.666Z,99.90
2022-09-02T04:44:09.733Z,99.90
2022-09-02T04:46:40.897Z,99.90
2022-09-02T04:49:14.824Z,99.90
2022-09-02T04:51:44.792Z,99.90
2022-09-02T04:54:12.943Z,99.90
2022-09-02T04:56:44.569Z,99.90
2022-09-02T04:59:13.783Z,99.90
2022-09-02T05:01:49.872Z,99.90
2022-09-02T05:04:23.983Z,99.90
2022-09-02T05:06:53.157Z,99.90
2022-09-02T05:09:21.445Z,99.90
2022-09-02T05:11:57.309Z,99.90
2022-09-02T05:14:29.494Z,99.90
2022-09-02T05:17:07.230Z,99.90
2022-09-02T05:19:38.901Z,99.90
2022-09-02T05:22:07.472Z,99.90
2022-09-02T05:24:40.118Z,99.90
2022-09-02T05:27:12.247Z,99.90
2022-09-02T05:29:45.222Z,99.90
2022-09-02T05:32:14.479Z,99.90
2022-09-02T05:34:44.960Z,99.90
2022-09-02T05:37:13.101Z,99.90
2022-09-02T05:39:41.131Z,99.90
2022-09-02T05:42:11.086Z,99.90
2022-09-02T05:44:40.030Z,99.90
2022-09-02T05:47:09.125Z,99.90
2022-09-02T05:49:39.499Z,99.90
2022-09-02T05:52:14.720Z,99.90
2022-09-02T05:54:49.303Z,99.90
2022-09-02T05:57:21.471Z,99.90
2022-09-02T06:00:09.051Z,99.90
2022-09-02T06:02:43.170Z,99.90
2022-09-02T06:05:31.594Z,99.90
2022-09-02T06:08:09.154Z,99.90
2022-09-02T06:10:42.286Z,99.90
2022-09-02T06:13:12.288Z,99.90
2022-09-02T06:15:44.286Z,99.90
2022-09-02T06:18:14.420Z,99.90
2022-09-02T06:20:46.751Z,99.90
2022-09-02T06:23:18.392Z,99.90
2022-09-02T06:25:48.975Z,99.90
2022-09-02T06:28:17.402Z,99.90
2022-09-02T06:30:48.457Z,99.90
2022-09-02T06:33:18.754Z,99.90
2022-09-02T06:35:48.135Z,99.90
2022-09-02T06:38:20.881Z,99.90
2022-09-02T06:40:51.843Z,99.90
2022-09-02T06:43:25.639Z,99.90
2022-09-02T06:46:18.716Z,99.90
2022-09-02T06:48:50.219Z,99.30
2022-09-02T06:51:21.588Z,99.50
2022-09-02T06:53:52.522Z,99.90
2022-09-02T06:56:22.070Z,99.90
2022-09-02T06:58:50.328Z,99.90
2022-09-02T07:01:19.866Z,99.90
2022-09-02T07:04:06.084Z,99.90
2022-09-02T07:06:36.923Z,99.20
2022-09-02T07:09:07.287Z,99.60
2022-09-02T07:11:37.436Z,99.50
2022-09-02T07:14:07.086Z,99.40
2022-09-02T07:16:39.548Z,99.60
2022-09-02T07:19:13.191Z,99.90
2022-09-02T07:21:44.339Z,98.60
2022-09-02T07:24:16.294Z,98.30
2022-09-02T07:26:45.574Z,99.40
2022-09-02T07:29:17.220Z,99.90
2022-09-02T07:31:49.145Z,99.90
2022-09-02T07:34:20.656Z,99.90
2022-09-02T07:36:50.592Z,99.80
2022-09-02T07:39:22.767Z,99.90
2022-09-02T07:41:53.166Z,99.70
2022-09-02T07:44:25.056Z,98.40
2022-09-02T07:46:54.637Z,99.90
2022-09-02T07:49:24.413Z,99.40
2022-09-02T07:51:53.493Z,99.30
2022-09-02T07:54:26.745Z,99.90
2022-09-02T07:56:56.324Z,99.90
2022-09-02T07:59:25.879Z,99.90
2022-09-02T08:01:56.714Z,98.70
2022-09-02T08:04:25.601Z,99.90
2022-09-02T08:06:54.764Z,99.00
2022-09-02T08:09:24.250Z,99.90
2022-09-02T08:11:53.382Z,99.90
2022-09-02T08:14:26.021Z,99.90
2022-09-02T08:16:54.946Z,99.90
2022-09-02T08:19:23.945Z,99.90
2022-09-02T08:21:52.323Z,98.60
2022-09-02T08:24:20.481Z,99.90
2022-09-02T08:26:50.210Z,99.60
2022-09-02T08:29:18.182Z,98.50
2022-09-02T08:31:46.936Z,99.90
2022-09-02T08:34:17.024Z,99.90
2022-09-02T08:36:52.525Z,99.70
2022-09-02T08:39:24.777Z,99.90
2022-09-02T08:44:38.328Z,98.10
2022-09-02T08:47:10.465Z,99.30
2022-09-02T08:49:42.893Z,97.30
2022-09-02T08:52:17.754Z,97.70
2022-09-02T08:54:52.085Z,98.10
2022-09-02T08:57:23.404Z,99.10
2022-09-02T08:59:56.252Z,98.20
2022-09-02T09:02:30.844Z,98.60
2022-09-02T09:05:11.885Z,96.90
2022-09-02T09:07:53.218Z,96.00
2022-09-02T09:10:27.211Z,97.20
2022-09-02T09:13:16.233Z,97.00
2022-09-02T09:15:53.447Z,96.80
2022-09-02T09:18:29.434Z,97.40
2022-09-02T09:20:57.483Z,98.10
2022-09-02T09:23:34.303Z,98.60
2022-09-02T09:26:08.397Z,97.20
2022-09-02T09:28:42.398Z,98.20
2022-09-02T09:31:16.859Z,99.50
2022-09-02T09:33:59.509Z,99.40
2022-09-02T09:36:45.649Z,98.90
2022-09-02T09:39:23.482Z,98.40
2022-09-02T09:41:54.549Z,97.60
2022-09-02T09:44:44.948Z,98.90
2022-09-02T09:47:19.492Z,98.90
2022-09-02T09:49:49.297Z,97.90
2022-09-02T09:52:25.725Z,98.80
2022-09-02T09:55:12.866Z,98.40
2022-09-02T09:57:44.634Z,97.20
2022-09-02T10:00:26.841Z,97.40
2022-09-02T10:02:59.580Z,99.90
2022-09-02T10:05:34.069Z,99.90
2022-09-02T10:08:10.130Z,99.90
2022-09-02T10:10:57.487Z,97.30
2022-09-02T10:13:29.153Z,97.50
2022-09-02T10:16:24.638Z,95.80
2022-09-02T10:18:56.951Z,95.50
2022-09-02T10:21:45.420Z,95.80
2022-09-02T10:24:30.733Z,95.10
2022-09-02T10:27:00.747Z,97.40
2022-09-02T10:29:50.729Z,97.90
2022-09-02T10:32:33.724Z,99.90
2022-09-02T10:35:11.149Z,96.10
2022-09-02T10:37:52.375Z,95.50
2022-09-02T10:40:25.359Z,95.40
2022-09-02T10:43:05.459Z,96.40
2022-09-02T10:45:38.708Z,97.50
2022-09-02T10:48:34.732Z,96.90
2022-09-02T10:51:08.138Z,95.90
2022-09-02T10:53:46.727Z,95.50
2022-09-02T10:56:21.466Z,94.80
2022-09-02T10:58:55.394Z,95.30
2022-09-02T11:01:26.846Z,96.20
2022-09-02T11:04:09.264Z,94.90
2022-09-02T11:07:00.984Z,94.90
2022-09-02T11:09:33.864Z,94.50
2022-09-02T11:12:08.112Z,94.80
2022-09-02T11:14:41.822Z,93.30
2022-09-02T11:17:21.097Z,93.00
2022-09-02T11:19:56.954Z,94.30
2022-09-02T11:22:29.650Z,93.80
2022-09-02T11:25:03.649Z,96.90
2022-09-02T11:27:43.215Z,96.20
2022-09-02T11:30:15.960Z,94.80
2022-09-02T11:32:51.433Z,94.70
2022-09-02T11:35:27.434Z,94.80
2022-09-02T11:38:01.926Z,95.80
2022-09-02T11:40:34.998Z,96.60
2022-09-02T11:43:14.970Z,97.00
2022-09-02T11:46:00.970Z,95.70
2022-09-02T11:48:50.807Z,97.50
2022-09-02T11:51:47.606Z,95.30
2022-09-02T11:54:19.358Z,98.10
2022-09-02T11:56:49.899Z,97.30
2022-09-02T11:59:23.635Z,96.80
2022-09-02T12:01:54.406Z,98.10
2022-09-02T12:04:58.737Z,96.70
2022-09-02T12:07:32.721Z,96.50
2022-09-02T12:10:02.738Z,95.70
2022-09-02T12:13:08.537Z,95.90
2022-09-02T12:15:40.579Z,95.80
2022-09-02T12:18:13.793Z,97.00
2022-09-02T12:21:07.644Z,99.40
2022-09-02T12:24:08.723Z,95.60
2022-09-02T12:27:12.286Z,97.80
2022-09-02T12:29:40.297Z,96.20
2022-09-02T12:32:10.062Z,95.80
2022-09-02T12:34:55.138Z,97.80
2022-09-02T12:37:53.901Z,96.20
2022-09-02T12:40:33.460Z,97.10
2022-09-02T12:43:07.325Z,97.10
2022-09-02T12:45:42.141Z,96.90
2022-09-02T12:48:14.596Z,97.10
2022-09-02T12:50:55.169Z,96.50
2022-09-02T12:53:40.896Z,95.80
2022-09-02T12:56:21.906Z,96.20
2022-09-02T12:58:52.861Z,97.60
2022-09-02T13:01:30.944Z,96.50
2022-09-02T13:04:27.308Z,95.60
2022-09-02T13:07:20.026Z,97.00
2022-09-02T13:10:32.805Z,97.20
2022-09-02T13:13:30.900Z,97.80
2022-09-02T13:16:18.789Z,97.20
2022-09-02T13:19:22.621Z,97.70
2022-09-02T13:22:42.543Z,97.00
2022-09-02T13:25:38.189Z,96.90
2022-09-02T13:28:39.832Z,96.80
2022-09-02T13:31:20.402Z,97.00
2022-09-02T13:33:49.451Z,95.90
2022-09-02T13:36:27.361Z,97.70
2022-09-02T13:38:55.374Z,95.80
2022-09-02T13:41:32.719Z,96.80
2022-09-02T13:44:08.945Z,95.40
2022-09-02T13:46:49.886Z,95.90
2022-09-02T13:49:23.959Z,97.40
2022-09-02T13:51:54.751Z,96.80
2022-09-02T13:54:32.793Z,99.40
2022-09-02T13:57:04.839Z,96.80
2022-09-02T13:59:38.946Z,96.90
2022-09-02T14:02:27.439Z,96.80
2022-09-02T14:04:59.670Z,96.50
2022-09-02T14:07:32.569Z,96.10
2022-09-02T14:10:03.098Z,97.60
2022-09-02T14:12:34.640Z,98.30
2022-09-02T14:15:03.598Z,98.80
2022-09-02T14:17:35.101Z,97.80
2022-09-02T14:20:17.029Z,97.70
2022-09-02T14:22:45.808Z,97.20
2022-09-02T14:25:15.516Z,97.80
2022-09-02T14:27:50.160Z,97.70
2022-09-02T14:30:30.650Z,95.50
2022-09-02T14:33:24.042Z,95.50
2022-09-02T14:36:00.799Z,97.70
2022-09-02T14:38:31.798Z,96.00
2022-09-02T14:41:01.852Z,97.00
2022-09-02T14:43:44.694Z,96.20
2022-09-02T14:46:26.076Z,96.40
2022-09-02T14:49:00.715Z,95.80
2022-09-02T14:51:35.424Z,96.20
2022-09-02T14:54:03.707Z,95.30
2022-09-02T14:56:49.939Z,97.30
2022-09-02T14:59:18.313Z,96.90
2022-09-02T15:01:49.027Z,96.00
2022-09-02T15:04:19.354Z,96.30
2022-09-02T15:06:51.685Z,96.90
2022-09-02T15:09:19.699Z,96.50
2022-09-02T15:11:51.564Z,95.80
2022-09-02T15:14:19.490Z,95.40
2022-09-02T15:16:48.540Z,96.60
2022-09-02T15:19:17.886Z,97.80
2022-09-02T15:21:45.846Z,97.00
2022-09-02T15:24:14.192Z,96.20
2022-09-02T15:26:42.106Z,96.00
2022-09-02T15:29:10.036Z,95.30
2022-09-02T15:31:37.946Z,94.90
2022-09-02T15:34:05.914Z,95.60
2022-09-02T15:36:35.219Z,96.60
2022-09-02T15:39:03.176Z,96.30
2022-09-02T15:41:31.606Z,97.40
2022-09-02T15:44:00.624Z,96.20
2022-09-02T15:46:30.665Z,96.90
2022-09-02T15:49:04.115Z,96.70
2022-09-02T15:51:32.449Z,96.30
2022-09-02T15:54:05.750Z,96.70
2022-09-02T15:56:36.158Z,97.40
2022-09-02T15:59:09.781Z,97.30
2022-09-02T16:01:40.583Z,97.00
2022-09-02T16:04:09.074Z,97.50
2022-09-02T16:06:39.432Z,97.90
2022-09-02T16:09:09.743Z,96.80
2022-09-02T16:11:38.653Z,97.30
2022-09-02T16:14:06.663Z,97.20
2022-09-02T16:16:35.749Z,98.20
2022-09-02T16:19:05.776Z,98.20
2022-09-02T16:21:33.691Z,98.60
2022-09-02T16:24:01.645Z,96.90
2022-09-02T16:26:32.561Z,97.40
2022-09-02T16:29:01.981Z,97.60
2022-09-02T16:31:31.552Z,98.10
2022-09-02T16:34:01.387Z,98.60
2022-09-02T16:36:33.123Z,98.40
2022-09-02T16:39:01.787Z,98.60
2022-09-02T16:41:34.580Z,98.70
2022-09-02T16:44:04.876Z,97.60
2022-09-02T16:46:33.254Z,98.10
2022-09-02T16:49:01.266Z,98.30
2022-09-02T16:51:30.170Z,98.10
2022-09-02T16:53:59.662Z,99.20
2022-09-02T16:56:28.112Z,99.10
2022-09-02T16:59:00.729Z,99.50
2022-09-02T17:01:32.296Z,99.60
2022-09-02T17:04:01.299Z,98.90
2022-09-02T17:06:29.733Z,99.30
2022-09-02T17:08:58.286Z,99.70
2022-09-02T17:11:28.278Z,98.60
2022-09-02T17:13:59.650Z,99.30
2022-09-02T17:16:29.297Z,98.80
2022-09-02T17:18:57.337Z,99.30
2022-09-02T17:21:28.374Z,99.40
2022-09-02T17:23:57.544Z,99.00
2022-09-02T17:26:27.598Z,98.70
2022-09-02T17:28:59.163Z,99.30
2022-09-02T17:31:30.069Z,99.80
2022-09-02T17:34:00.346Z,99.70
2022-09-02T17:36:29.863Z,99.80
2022-09-02T17:38:59.309Z,99.90
2022-09-02T17:41:45.761Z,99.90
2022-09-02T17:44:16.110Z,99.90
2022-09-02T17:46:44.969Z,99.90
2022-09-02T17:49:17.154Z,99.90
2022-09-02T17:51:46.498Z,99.90
2022-09-02T17:54:15.469Z,99.90
2022-09-02T17:57:11.509Z,99.90
2022-09-02T18:00:02.200Z,99.90
2022-09-02T18:03:08.386Z,99.90
2022-09-02T18:05:51.593Z,99.90
2022-09-02T18:08:28.854Z,99.90
2022-09-02T18:10:58.736Z,99.90
2022-09-02T18:13:36.406Z,99.90
2022-09-02T18:16:23.210Z,99.90
2022-09-02T18:18:56.396Z,99.90
2022-09-02T18:21:30.461Z,99.90
2022-09-02T18:24:05.297Z,99.90
2022-09-02T18:26:49.251Z,99.90
2022-09-02T18:29:34.730Z,99.90
2022-09-02T18:32:11.193Z,99.90
2022-09-02T18:34:52.171Z,99.90
2022-09-02T18:37:32.330Z,99.90
2022-09-02T18:40:13.504Z,99.90
2022-09-02T18:42:51.356Z,99.90
2022-09-02T18:45:26.083Z,99.90
2022-09-02T18:47:59.722Z,99.90
2022-09-02T18:50:49.827Z,99.90
2022-09-02T18:53:23.555Z,99.90
2022-09-02T18:55:53.904Z,99.90
2022-09-02T18:58:33.914Z,99.90
2022-09-02T19:01:07.070Z,99.90
2022-09-02T19:03:38.078Z,99.90
2022-09-02T19:06:08.683Z,99.90
2022-09-02T19:08:38.308Z,99.90
2022-09-02T19:11:08.765Z,99.90
2022-09-02T19:13:45.976Z,99.90
2022-09-02T19:16:15.435Z,99.90
2022-09-02T19:18:44.830Z,99.90
2022-09-02T19:21:17.617Z,99.90
2022-09-02T19:23:47.453Z,99.90
2022-09-02T19:26:15.754Z,99.90
2022-09-02T19:28:45.870Z,99.90
2022-09-02T19:31:20.670Z,99.90
2022-09-02T19:33:54.196Z,99.90
2022-09-02T19:36:24.112Z,99.90
2022-09-02T19:38:55.293Z,99.90
2022-09-02T19:41:26.474Z,99.90
2022-09-02T19:43:54.684Z,99.90
2022-09-02T19:47:04.078Z,99.90
2022-09-02T19:49:12.178Z,99.90
2022-09-02T19:51:40.719Z,99.90
2022-09-02T19:54:08.625Z,99.90
2022-09-02T19:56:37.166Z,99.90
2022-09-02T19:59:06.369Z,99.90
2022-09-02T20:01:35.064Z,99.90
2022-09-02T20:04:03.268Z,99.90
2022-09-02T20:06:32.646Z,99.90
2022-09-02T20:09:00.610Z,99.90
2022-09-02T20:11:29.034Z,99.90
2022-09-02T20:13:57.222Z,99.90
2022-09-02T20:16:28.963Z,99.90
2022-09-02T20:18:57.840Z,99.90
2022-09-02T20:21:28.054Z,99.90
2022-09-02T20:24:00.569Z,99.90
2022-09-02T20:26:40.577Z,99.90
2022-09-02T20:29:19.838Z,99.90
2022-09-02T20:32:05.802Z,99.90
2022-09-02T20:34:55.532Z,99.90
2022-09-02T20:37:35.672Z,99.90
2022-09-02T20:40:23.330Z,99.90
2022-09-02T20:43:06.744Z,99.90
2022-09-02T20:45:40.004Z,99.90
2022-09-02T20:48:27.715Z,99.90
2022-09-02T20:51:03.725Z,99.90
2022-09-02T20:53:48.511Z,99.90
2022-09-02T20:56:26.107Z,99.90
2022-09-02T20:59:02.629Z,99.90
2022-09-02T21:01:36.262Z,99.90
2022-09-02T21:04:08.606Z,99.90
2022-09-02T21:06:41.839Z,99.90
2022-09-02T21:09:18.610Z,99.90
2022-09-02T21:11:54.337Z,99.90
2022-09-02T21:14:26.165Z,99.90
2022-09-02T21:16:59.776Z,99.90
2022-09-02T21:19:33.990Z,99.90
2022-09-02T21:22:09.531Z,99.90
2022-09-02T21:24:44.803Z,99.90
2022-09-02T21:27:19.143Z,99.90
2022-09-02T21:29:55.470Z,99.90
2022-09-02T21:32:31.678Z,99.90
2022-09-02T21:35:04.220Z,99.90
2022-09-02T21:37:36.652Z,99.90
2022-09-02T21:40:08.160Z,99.90
2022-09-02T21:42:53.756Z,99.90
2022-09-02T21:45:26.998Z,99.90
2022-09-02T21:48:10.206Z,99.90
2022-09-02T21:50:45.447Z,99.90
2022-09-02T21:53:22.812Z,99.90
2022-09-02T21:56:06.328Z,99.90
2022-09-02T21:58:51.717Z,99.90
2022-09-02T22:01:42.146Z,99.90
2022-09-02T22:04:23.320Z,99.90
2022-09-02T22:06:58.247Z,99.90
2022-09-02T22:09:30.931Z,99.90
2022-09-02T22:12:06.610Z,99.90
2022-09-02T22:14:45.049Z,99.90
2022-09-02T22:17:22.690Z,99.90
2022-09-02T22:19:57.911Z,99.90
2022-09-02T22:22:31.539Z,99.90
2022-09-02T22:24:59.479Z,99.90
2022-09-02T22:27:34.159Z,99.90
2022-09-02T22:30:09.312Z,99.90
2022-09-02T22:32:42.462Z,99.90
2022-09-02T22:35:18.497Z,99.90
2022-09-02T22:37:52.404Z,99.90
2022-09-02T22:40:25.154Z,99.90
2022-09-02T22:42:58.095Z,99.90
2022-09-02T22:45:52.224Z,99.90
2022-09-02T22:48:42.088Z,99.90
2022-09-02T22:51:32.854Z,99.90
2022-09-02T22:54:00.859Z,99.90
2022-09-02T22:56:39.118Z,99.90
2022-09-02T22:59:29.308Z,99.90
2022-09-02T23:02:09.078Z,99.90
2022-09-02T23:05:02.704Z,99.90
2022-09-02T23:07:31.037Z,99.90
2022-09-02T23:10:01.441Z,99.90
2022-09-02T23:12:36.873Z,99.90
2022-09-02T23:15:20.443Z,99.90
2022-09-02T23:17:58.492Z,99.90
2022-09-02T23:20:39.542Z,99.90
2022-09-02T23:23:22.708Z,99.90
2022-09-02T23:26:05.092Z,99.90
2022-09-02T23:28:43.224Z,99.90
2022-09-02T23:31:22.115Z,99.90
2022-09-02T23:34:00.791Z,99.90
2022-09-02T23:36:39.358Z,99.90
2022-09-02T23:39:19.112Z,99.90
2022-09-02T23:41:47.798Z,99.90
2022-09-02T23:44:16.622Z,99.90
2022-09-02T23:46:57.444Z,99.90
2022-09-02T23:49:38.166Z,99.90
2022-09-02T23:52:11.198Z,99.90
2022-09-02T23:54:51.253Z,99.90
2022-09-02T23:57:31.517Z,99.90
